Terminal Aerodrome Forecast
Issued by NWS Duluth, MN

Home | Current Version | Previous Version | Text Only | Print | Product List | Glossary On
Versions: 1 2 3 4 5 6 7 8 9 10 11 12 13 14 15 16 17 18 19 20 21 22 23 24 25 26 27 28
000
FTUS43 KDLH 221100
TAFINL
TAF
KINL 221136Z 2212/2312 15012KT P6SM SKC
     FM221600 16012G20KT P6SM SCT100
     FM222000 17012G22KT P6SM SCT040 BKN080
     FM222300 17008KT P6SM VCSH SCT020 OVC040
     FM230600 18010KT 6SM -RA SCT008 OVC020=

USA.gov is the U.S. government's official web portal to all federal, state and local government web resources and services.